Time;durP1;ratioP1;P1;durP2;ratioP2;P2;SDS_P1;SDS_P2;PMS_P1;PMS_P2;Temp;Humidity;BMP_temperature;BMP_pressure;BME280_temperature;BME280_humidity;BME280_pressure;Samples;Min_cycle;Max_cycle;Signal;HPM_P1;HPM_P2
2022/07/09 00:02:45;;;;;;;4.10;2.50;;;;;;;15.79;74.49;100723.23;130313;1267;108847;-78
2022/07/09 00:05:50;;;;;;;6.30;2.90;;;;;;;15.75;74.80;100724.40;130315;1268;108460;-76
2022/07/09 00:08:56;;;;;;;5.30;3.10;;;;;;;15.69;74.66;100722.73;130318;1267;109029;-77
2022/07/09 00:12:01;;;;;;;6.10;3.10;;;;;;;15.63;75.01;100729.97;130189;1267;108816;-78
2022/07/09 00:15:09;;;;;;;4.50;2.70;;;;;;;15.57;75.16;100737.86;130156;1268;107851;-78
2022/07/09 00:18:14;;;;;;;6.70;2.90;;;;;;;15.53;75.47;100739.63;130324;1267;108749;-80
2022/07/09 00:21:19;;;;;;;5.50;3.60;;;;;;;15.48;75.47;100741.15;130305;1268;108945;-80
2022/07/09 00:24:25;;;;;;;5.90;3.20;;;;;;;15.48;75.53;100743.40;130369;1268;108881;-76
2022/07/09 00:27:30;;;;;;;6.40;3.60;;;;;;;15.45;75.16;100736.15;130221;1268;108133;-77
2022/07/09 00:30:35;;;;;;;6.00;3.60;;;;;;;15.46;75.21;100741.23;130318;1265;107523;-77
2022/07/09 00:33:41;;;;;;;6.40;3.00;;;;;;;15.45;75.38;100747.28;130291;1267;108950;-77
2022/07/09 00:36:46;;;;;;;5.10;2.80;;;;;;;15.41;75.39;100750.45;130305;1267;108800;-78
2022/07/09 00:39:51;;;;;;;7.50;3.70;;;;;;;15.40;75.32;100747.58;130346;1268;108762;-77
2022/07/09 00:42:57;;;;;;;7.30;3.40;;;;;;;15.42;75.57;100749.21;130314;1268;108760;-77
2022/07/09 00:46:02;;;;;;;5.00;3.50;;;;;;;15.39;76.00;100751.23;130280;1268;108646;-77
2022/07/09 00:49:08;;;;;;;7.30;3.70;;;;;;;15.32;75.81;100752.73;130281;1267;108905;-78
2022/07/09 00:52:17;;;;;;;6.80;3.80;;;;;;;15.26;75.59;100750.42;130264;1268;108720;-78
2022/07/09 00:55:22;;;;;;;6.60;3.80;;;;;;;15.20;75.98;100752.63;130355;1268;108840;-78
2022/07/09 00:58:29;;;;;;;6.00;3.50;;;;;;;15.10;76.18;100751.94;130289;1267;108712;-77
2022/07/09 01:01:35;;;;;;;7.60;3.50;;;;;;;15.07;76.18;100751.04;130361;1268;108776;-76
2022/07/09 01:04:40;;;;;;;6.90;4.00;;;;;;;15.03;76.59;100748.42;130318;1268;108553;-76
2022/07/09 01:07:46;;;;;;;7.80;3.60;;;;;;;14.97;76.45;100747.33;130171;1265;219626;-77
2022/07/09 01:10:54;;;;;;;5.70;4.00;;;;;;;14.90;76.38;100745.86;130319;1267;108704;-78
2022/07/09 01:14:00;;;;;;;6.00;3.70;;;;;;;14.86;76.51;100745.41;130295;1267;108854;-79
2022/07/09 01:17:07;;;;;;;6.50;3.40;;;;;;;14.79;76.78;100744.08;130259;1268;108985;-79
2022/07/09 01:20:13;;;;;;;7.00;4.10;;;;;;;14.71;76.85;100742.61;130369;1267;108736;-80
2022/07/09 01:23:19;;;;;;;6.30;4.10;;;;;;;14.67;77.15;100745.35;130357;1268;108689;-80
2022/07/09 01:26:26;;;;;;;7.60;4.10;;;;;;;14.64;77.21;100744.11;130352;1267;109152;-80
2022/07/09 01:29:31;;;;;;;8.00;4.50;;;;;;;14.58;77.07;100745.64;130221;1268;106978;-76
2022/07/09 01:32:37;;;;;;;8.30;3.70;;;;;;;14.47;77.69;100741.92;130183;1268;108810;-76
2022/07/09 01:35:42;;;;;;;8.30;3.80;;;;;;;14.41;77.72;100745.06;130169;1268;106854;-76
2022/07/09 01:38:47;;;;;;;6.20;3.80;;;;;;;14.35;77.53;100740.36;130207;1268;108764;-76
2022/07/09 01:41:53;;;;;;;5.50;3.80;;;;;;;14.35;77.57;100737.91;130330;1268;108831;-76
2022/07/09 01:44:58;;;;;;;8.10;4.10;;;;;;;14.38;77.80;100742.52;130235;1268;108805;-76
2022/07/09 01:48:04;;;;;;;7.20;3.70;;;;;;;14.41;77.52;100742.59;130304;1267;109811;-76
2022/07/09 01:51:10;;;;;;;5.90;3.40;;;;;;;14.40;77.80;100745.20;130304;1267;108921;-77
2022/07/09 01:54:15;;;;;;;5.40;3.50;;;;;;;14.39;77.94;100741.23;130297;1268;108681;-76
2022/07/09 01:57:21;;;;;;;7.50;3.90;;;;;;;14.38;78.03;100737.41;130230;1268;108803;-77
2022/07/09 02:00:27;;;;;;;6.20;4.20;;;;;;;14.39;77.71;100734.80;130361;1267;108793;-76
2022/07/09 02:03:33;;;;;;;5.50;3.90;;;;;;;14.38;77.79;100725.20;130326;1267;108719;-77
2022/07/09 02:06:38;;;;;;;9.00;3.60;;;;;;;14.31;77.93;100728.79;130326;1267;108866;-80
2022/07/09 02:09:44;;;;;;;5.10;3.30;;;;;;;14.26;78.45;100733.17;130435;1267;108828;-80
2022/07/09 02:12:49;;;;;;;7.20;3.70;;;;;;;14.24;78.35;100729.71;130462;1267;108876;-79
2022/07/09 02:15:55;;;;;;;6.30;3.60;;;;;;;14.21;78.37;100722.92;130285;1267;109099;-78
2022/07/09 02:19:00;;;;;;;7.30;4.20;;;;;;;14.19;78.43;100721.24;130352;1267;108951;-74
2022/07/09 02:22:06;;;;;;;7.60;4.00;;;;;;;14.10;78.82;100721.40;130397;1267;108855;-80
2022/07/09 02:25:12;;;;;;;5.80;3.90;;;;;;;14.06;78.66;100720.55;130346;1267;108750;-79
2022/07/09 02:28:17;;;;;;;6.00;3.50;;;;;;;14.02;78.72;100716.95;130327;1268;107733;-78
2022/07/09 02:31:23;;;;;;;4.10;3.10;;;;;;;14.03;78.68;100712.50;130343;1267;108809;-78
2022/07/09 02:34:28;;;;;;;9.10;4.10;;;;;;;14.09;78.61;100712.52;130369;1267;108807;-77
2022/07/09 02:37:34;;;;;;;6.80;4.10;;;;;;;14.13;78.72;100716.02;130485;1267;108950;-77
2022/07/09 02:40:39;;;;;;;7.30;4.00;;;;;;;14.10;78.63;100715.16;130322;1267;108178;-76
2022/07/09 02:43:44;;;;;;;7.80;3.90;;;;;;;14.04;79.14;100713.82;130305;1267;108846;-76
2022/07/09 02:46:50;;;;;;;6.50;3.40;;;;;;;13.99;79.43;100708.33;130311;1267;108631;-77
2022/07/09 02:49:56;;;;;;;6.50;3.70;;;;;;;13.96;79.27;100707.48;130306;1267;108960;-75
2022/07/09 02:53:01;;;;;;;6.20;3.70;;;;;;;14.03;79.28;100708.40;130372;1267;108082;-75
2022/07/09 02:56:07;;;;;;;7.30;3.70;;;;;;;14.17;78.99;100706.85;130346;1267;108801;-75
2022/07/09 02:59:13;;;;;;;6.50;3.80;;;;;;;14.27;79.05;100702.02;130344;1267;108961;-75
2022/07/09 03:02:18;;;;;;;6.90;3.30;;;;;;;14.33;78.91;100699.46;130328;1267;108840;-75
2022/07/09 03:05:23;;;;;;;4.80;3.50;;;;;;;14.41;79.14;100697.48;130233;1268;108924;-77
2022/07/09 03:08:29;;;;;;;6.20;3.40;;;;;;;14.45;79.11;100696.86;130360;1267;108954;-75
2022/07/09 03:11:34;;;;;;;5.80;3.90;;;;;;;14.49;79.31;100695.02;130335;1267;108828;-75
2022/07/09 03:14:39;;;;;;;5.80;3.80;;;;;;;14.49;79.33;100696.36;130426;1267;108686;-74
2022/07/09 03:17:45;;;;;;;9.00;3.80;;;;;;;14.53;79.31;100690.63;130403;1267;108801;-74
2022/07/09 03:20:51;;;;;;;4.40;3.30;;;;;;;14.56;79.53;100690.45;130280;1268;108033;-76
2022/07/09 03:23:56;;;;;;;4.40;2.80;;;;;;;14.67;79.30;100684.71;130179;1267;108747;-73
2022/07/09 03:27:02;;;;;;;7.70;3.40;;;;;;;14.80;79.46;100678.05;130362;1268;108672;-72
2022/07/09 03:30:09;;;;;;;5.40;3.10;;;;;;;14.97;79.18;100678.25;130232;1267;108655;-72
2022/07/09 03:33:15;;;;;;;5.10;3.00;;;;;;;15.05;79.18;100679.91;130367;1267;108733;-73
2022/07/09 03:36:20;;;;;;;5.80;3.20;;;;;;;15.16;78.93;100678.39;130327;1267;108754;-72
2022/07/09 03:39:26;;;;;;;6.70;3.40;;;;;;;15.15;79.04;100676.96;130359;1267;108815;-73
2022/07/09 03:42:31;;;;;;;5.50;2.80;;;;;;;15.16;78.83;100672.55;130547;1267;108853;-72
2022/07/09 03:45:37;;;;;;;5.50;2.90;;;;;;;15.04;79.69;100675.71;130350;1267;108829;-72
2022/07/09 03:48:42;;;;;;;6.90;3.00;;;;;;;15.00;79.39;100676.91;130347;1267;108758;-72
2022/07/09 03:51:47;;;;;;;4.70;3.20;;;;;;;14.96;79.66;100676.81;130372;1267;108672;-74
2022/07/09 03:54:53;;;;;;;5.40;3.00;;;;;;;14.96;80.05;100673.02;130338;1268;108891;-73
2022/07/09 03:57:58;;;;;;;4.80;2.80;;;;;;;14.97;79.86;100672.61;130236;1268;108952;-73
2022/07/09 04:01:04;;;;;;;3.80;2.50;;;;;;;14.96;80.27;100677.73;130236;1268;108942;-74
2022/07/09 04:04:09;;;;;;;4.20;2.70;;;;;;;14.95;80.29;100672.75;130209;1268;108686;-74
2022/07/09 04:07:15;;;;;;;6.00;2.90;;;;;;;15.02;80.26;100671.66;130215;1268;108755;-74
2022/07/09 04:10:20;;;;;;;4.20;3.00;;;;;;;15.12;80.24;100669.27;130241;1267;108664;-75
2022/07/09 04:13:26;;;;;;;3.80;2.90;;;;;;;15.28;80.00;100669.80;130214;1268;109301;-75
2022/07/09 04:16:31;;;;;;;3.80;2.30;;;;;;;15.41;79.87;100662.39;130181;1268;108037;-76
2022/07/09 04:19:37;;;;;;;4.20;2.40;;;;;;;15.82;79.96;100664.72;130220;1268;108804;-75
2022/07/09 04:22:42;;;;;;;6.00;2.80;;;;;;;16.21;79.18;100661.27;130222;1268;108800;-76
2022/07/09 04:25:48;;;;;;;3.80;2.70;;;;;;;16.28;78.73;100660.84;130237;1267;108747;-76
2022/07/09 04:28:53;;;;;;;4.80;2.60;;;;;;;16.17;78.93;100658.95;130257;1268;108638;-75
2022/07/09 04:31:59;;;;;;;4.50;2.30;;;;;;;16.06;78.97;100655.13;130221;1268;107649;-75
2022/07/09 04:35:05;;;;;;;4.30;2.40;;;;;;;16.01;79.06;100656.27;130239;1268;108697;-76
2022/07/09 04:38:11;;;;;;;4.70;2.40;;;;;;;16.02;79.01;100661.67;130247;1268;109649;-76
2022/07/09 04:41:17;;;;;;;4.70;2.40;;;;;;;16.04;79.07;100659.34;130235;1268;108636;-75
2022/07/09 04:44:22;;;;;;;4.90;2.70;;;;;;;16.04;79.02;100659.52;130214;1268;108590;-75
2022/07/09 04:47:28;;;;;;;5.20;2.60;;;;;;;16.01;79.22;100663.42;130216;1268;108542;-75
2022/07/09 04:50:33;;;;;;;2.60;2.20;;;;;;;16.04;79.14;100653.80;130216;1268;108270;-75
2022/07/09 04:53:39;;;;;;;3.20;2.50;;;;;;;16.04;78.90;100652.47;130208;1268;108738;-74
2022/07/09 04:56:44;;;;;;;4.40;2.50;;;;;;;16.01;79.03;100649.57;130210;1268;108778;-75
2022/07/09 04:59:49;;;;;;;4.10;2.50;;;;;;;16.06;78.83;100646.75;130236;1268;109047;-75
2022/07/09 05:02:55;;;;;;;3.50;2.70;;;;;;;16.08;78.82;100653.29;130231;1268;108732;-74
2022/07/09 05:06:00;;;;;;;5.30;3.10;;;;;;;16.10;78.80;100649.77;130223;1266;108896;-75
2022/07/09 05:09:05;;;;;;;4.80;3.50;;;;;;;16.16;78.74;100650.48;130163;1268;108778;-77
2022/07/09 05:12:11;;;;;;;3.50;2.90;;;;;;;16.11;78.89;100652.55;130345;1268;108981;-75
2022/07/09 05:15:17;;;;;;;3.10;2.80;;;;;;;16.14;78.94;100651.83;130290;1268;108880;-73
2022/07/09 05:18:22;;;;;;;4.30;3.00;;;;;;;16.33;78.97;100648.23;130490;1268;108797;-75
2022/07/09 05:21:27;;;;;;;4.00;2.90;;;;;;;16.59;78.83;100647.72;130315;1268;108745;-75
2022/07/09 05:24:33;;;;;;;3.50;2.90;;;;;;;16.99;78.32;100643.27;130317;1267;108739;-74
2022/07/09 05:27:45;;;;;;;4.60;2.20;;;;;;;17.23;77.87;100643.55;130288;1267;108737;-74
2022/07/09 05:30:50;;;;;;;2.30;1.90;;;;;;;17.25;76.37;100643.29;130337;1267;108710;-76
2022/07/09 05:33:56;;;;;;;1.60;1.50;;;;;;;17.21;76.07;100643.98;130223;1268;109009;-74
2022/07/09 05:37:01;;;;;;;3.30;2.10;;;;;;;17.30;76.33;100642.98;130265;1268;108803;-75
2022/07/09 05:40:08;;;;;;;3.30;2.40;;;;;;;17.33;76.64;100638.04;130315;1268;107736;-79
2022/07/09 05:43:14;;;;;;;3.80;2.30;;;;;;;17.35;75.73;100633.33;130426;1268;109018;-76
2022/07/09 05:46:19;;;;;;;2.90;1.90;;;;;;;17.32;76.07;100632.59;130233;1269;108893;-77
2022/07/09 05:49:25;;;;;;;4.00;2.10;;;;;;;17.26;76.20;100631.85;130251;1268;108539;-76
2022/07/09 05:52:31;;;;;;;2.60;2.30;;;;;;;17.23;76.34;100627.17;130266;1268;109288;-75
2022/07/09 05:55:36;;;;;;;3.70;2.30;;;;;;;17.15;75.84;100627.31;130308;1268;108807;-76
2022/07/09 05:58:41;;;;;;;4.20;2.60;;;;;;;17.10;76.34;100619.82;130265;1269;107709;-73
2022/07/09 06:01:47;;;;;;;4.80;2.20;;;;;;;17.07;76.30;100623.72;130236;1270;108731;-75
2022/07/09 06:04:52;;;;;;;2.10;1.90;;;;;;;17.13;76.61;100619.45;130250;1268;108859;-76
2022/07/09 06:07:58;;;;;;;3.10;2.00;;;;;;;17.34;76.48;100617.71;130264;1270;108799;-76
2022/07/09 06:11:04;;;;;;;2.10;1.60;;;;;;;17.50;75.74;100621.42;130200;1268;107434;-77
2022/07/09 06:14:09;;;;;;;3.90;1.90;;;;;;;17.58;75.89;100618.80;130225;1269;108998;-75
2022/07/09 06:17:15;;;;;;;1.90;1.40;;;;;;;17.72;75.49;100617.32;130221;1268;108872;-76
2022/07/09 06:20:20;;;;;;;4.50;2.90;;;;;;;17.73;74.79;100618.95;130231;1271;108834;-75
2022/07/09 06:23:25;;;;;;;3.30;1.80;;;;;;;17.66;75.02;100618.83;130212;1271;108882;-75
2022/07/09 06:26:31;;;;;;;2.80;1.50;;;;;;;17.77;75.62;100616.34;130166;1268;108839;-76
2022/07/09 06:29:36;;;;;;;3.50;1.30;;;;;;;17.93;75.38;100608.59;130216;1268;108694;-76
2022/07/09 06:32:42;;;;;;;3.70;1.60;;;;;;;18.12;75.40;100602.59;130204;1269;108798;-75
2022/07/09 06:35:47;;;;;;;2.60;1.70;;;;;;;18.41;74.84;100600.16;130221;1268;109001;-75
2022/07/09 06:42:17;;;;;;;2.40;1.50;;;;;;;18.73;73.71;100592.79;130221;1268;108702;-76
2022/07/09 06:45:25;;;;;;;2.40;1.40;;;;;;;19.02;74.41;100591.77;130174;1268;109073;-75
2022/07/09 06:48:30;;;;;;;3.60;1.70;;;;;;;19.34;72.85;100587.73;130248;1270;108598;-73
2022/07/09 06:51:36;;;;;;;2.90;1.80;;;;;;;19.28;71.61;100586.06;130205;1268;108950;-75
2022/07/09 06:54:41;;;;;;;2.70;1.90;;;;;;;19.01;71.01;100588.84;130221;1268;108648;-77
2022/07/09 06:57:47;;;;;;;2.80;1.50;;;;;;;18.97;72.14;100583.38;130224;1269;108762;-77
2022/07/09 07:00:52;;;;;;;2.40;1.30;;;;;;;19.13;73.20;100584.72;130214;1268;108739;-77
2022/07/09 07:03:58;;;;;;;2.40;1.10;;;;;;;19.50;73.42;100576.09;130369;1267;108735;-73
2022/07/09 07:07:04;;;;;;;2.60;1.40;;;;;;;19.91;72.85;100573.04;130221;1270;108711;-77
2022/07/09 07:10:11;;;;;;;3.20;1.50;;;;;;;20.15;72.55;100565.96;130292;1268;106993;-79
2022/07/09 07:13:16;;;;;;;2.50;1.40;;;;;;;20.37;71.15;100562.04;130444;1268;108712;-83
2022/07/09 07:16:21;;;;;;;3.10;1.30;;;;;;;20.32;68.63;100565.71;130328;1268;108861;-79
2022/07/09 07:19:27;;;;;;;3.60;1.50;;;;;;;20.46;71.65;100553.11;130475;1267;108901;-79
2022/07/09 07:22:32;;;;;;;2.60;1.20;;;;;;;20.83;71.52;100555.16;130613;1268;108855;-79
2022/07/09 07:25:37;;;;;;;2.60;1.30;;;;;;;20.87;66.10;100557.63;130578;1268;108745;-78
2022/07/09 07:28:43;;;;;;;2.90;1.20;;;;;;;20.69;68.93;100556.52;130343;1268;108874;-77
2022/07/09 07:31:49;;;;;;;4.30;1.50;;;;;;;21.04;70.55;100551.64;130469;1268;108879;-82
2022/07/09 07:34:54;;;;;;;2.30;1.50;;;;;;;21.31;69.13;100556.20;130541;1268;108243;-82
2022/07/09 07:37:59;;;;;;;6.40;1.50;;;;;;;21.26;68.52;100552.41;130469;1268;108654;-76
2022/07/09 07:41:05;;;;;;;4.20;1.30;;;;;;;21.44;69.27;100548.34;130455;1268;108916;-78
2022/07/09 07:44:10;;;;;;;3.60;1.10;;;;;;;21.43;67.71;100550.02;130515;1266;108756;-75
2022/07/09 07:47:16;;;;;;;4.50;1.40;;;;;;;21.49;67.39;100550.20;130388;1268;108724;-74
2022/07/09 07:50:21;;;;;;;4.40;1.30;;;;;;;21.58;68.15;100547.25;130437;1268;109941;-78
2022/07/09 07:53:26;;;;;;;2.70;1.40;;;;;;;21.77;65.86;100549.89;130536;1268;108823;-77
2022/07/09 07:56:33;;;;;;;2.20;1.30;;;;;;;21.66;67.20;100550.92;130470;1268;108979;-77
2022/07/09 07:59:39;;;;;;;2.80;1.10;;;;;;;21.79;66.46;100545.45;130473;1267;108819;-77
2022/07/09 08:02:44;;;;;;;4.20;1.10;;;;;;;21.79;66.63;100540.35;130342;1267;108733;-77
2022/07/09 08:05:50;;;;;;;4.70;1.20;;;;;;;22.03;66.23;100537.84;130443;1268;108713;-77
2022/07/09 08:08:55;;;;;;;3.40;1.20;;;;;;;22.08;62.07;100541.30;130488;1267;108738;-77
2022/07/09 08:12:01;;;;;;;2.60;1.20;;;;;;;21.75;62.87;100535.45;130226;1269;108746;-78
2022/07/09 08:15:08;;;;;;;2.90;1.10;;;;;;;21.46;62.08;100536.38;130333;1268;108901;-76
2022/07/09 08:18:14;;;;;;;3.20;1.10;;;;;;;21.58;63.20;100540.26;130412;1268;108997;-78
2022/07/09 08:21:19;;;;;;;5.20;1.40;;;;;;;21.52;62.39;100540.94;130374;1267;108800;-79
2022/07/09 08:24:26;;;;;;;1.60;1.00;;;;;;;21.18;61.68;100537.52;130386;1267;108799;-78
2022/07/09 08:27:31;;;;;;;4.80;1.30;;;;;;;21.12;63.20;100536.75;130429;1267;109553;-78
2022/07/09 08:30:37;;;;;;;1.50;1.20;;;;;;;21.03;61.02;100532.08;130360;1267;108594;-77
2022/07/09 08:33:42;;;;;;;3.20;1.20;;;;;;;21.03;63.10;100531.90;130392;1267;108739;-77
2022/07/09 08:36:48;;;;;;;2.00;1.30;;;;;;;21.46;63.40;100532.11;130298;1268;108777;-77
2022/07/09 08:39:53;;;;;;;3.00;1.00;;;;;;;21.72;62.56;100526.48;130327;1267;108863;-77
2022/07/09 08:43:00;;;;;;;3.20;1.20;;;;;;;21.74;62.33;100525.04;130356;1267;108713;-78
2022/07/09 08:46:07;;;;;;;3.50;1.10;;;;;;;21.63;61.85;100526.39;130359;1268;108612;-78
2022/07/09 08:49:14;;;;;;;2.50;1.10;;;;;;;21.52;59.97;100527.48;130205;1270;108922;-78
2022/07/09 08:52:20;;;;;;;4.00;1.00;;;;;;;21.40;58.87;100517.39;130430;1268;108812;-76
2022/07/09 08:55:27;;;;;;;2.30;1.30;;;;;;;21.44;59.33;100514.05;130344;1268;108946;-77
2022/07/09 08:58:34;;;;;;;2.30;1.20;;;;;;;21.39;58.70;100506.20;130466;1268;108861;-77
2022/07/09 09:01:39;;;;;;;2.60;1.20;;;;;;;21.44;59.46;100511.79;130380;1268;108801;-78
2022/07/09 09:04:45;;;;;;;3.00;1.80;;;;;;;21.56;60.21;100508.30;130204;1271;108744;-76
2022/07/09 09:07:50;;;;;;;2.70;1.70;;;;;;;21.64;58.96;100512.17;130405;1268;108675;-80
2022/07/09 09:10:56;;;;;;;2.70;1.60;;;;;;;21.44;58.45;100515.63;130536;1267;108699;-81
2022/07/09 09:14:01;;;;;;;3.60;1.30;;;;;;;21.10;57.79;100510.66;130459;1268;109079;-72
2022/07/09 09:17:11;;;;;;;2.20;1.50;;;;;;;20.64;56.76;100511.58;130403;1268;108949;-73
2022/07/09 09:20:18;;;;;;;4.70;1.60;;;;;;;20.40;57.86;100504.04;131122;1268;108973;-74
2022/07/09 09:23:24;;;;;;;5.20;1.90;;;;;;;20.37;57.48;100505.91;130471;1268;108709;-73
2022/07/09 09:26:30;;;;;;;5.20;1.70;;;;;;;20.48;58.73;100501.73;130446;1268;108788;-75
2022/07/09 09:29:39;;;;;;;3.00;1.60;;;;;;;20.72;57.10;100497.69;130399;1268;108780;-82
2022/07/09 09:32:44;;;;;;;3.40;1.40;;;;;;;20.73;58.18;100487.58;130306;1268;107642;-80
2022/07/09 09:35:50;;;;;;;3.60;1.50;;;;;;;21.04;58.16;100492.79;130297;1269;108751;-75
2022/07/09 09:39:07;;;;;;;2.40;1.80;;;;;;;21.25;56.66;100493.02;130265;1269;108860;-78
2022/07/09 09:42:14;;;;;;;3.50;1.90;;;;;;;21.12;55.35;100495.08;130230;1268;109696;-77
2022/07/09 09:45:20;;;;;;;4.90;1.80;;;;;;;21.18;57.69;100494.46;130223;1268;108532;-75
2022/07/09 09:48:25;;;;;;;7.30;2.50;;;;;;;21.43;57.46;100499.52;130359;1268;108945;-74
2022/07/09 09:51:35;;;;;;;3.20;1.40;;;;;;;21.70;57.45;100492.79;130270;1271;108728;-76
2022/07/09 09:54:42;;;;;;;4.30;1.70;;;;;;;21.69;55.76;100495.00;130389;1268;108455;-74
2022/07/09 09:57:49;;;;;;;7.40;2.30;;;;;;;21.69;56.29;100487.65;130432;1268;108886;-74
2022/07/09 10:00:54;;;;;;;4.40;2.10;;;;;;;21.98;57.25;100480.89;130664;1268;109720;-74
2022/07/09 10:04:18;;;;;;;4.70;1.50;;;;;;;22.16;57.32;100472.65;130319;1269;108793;-76
2022/07/09 10:07:50;;;;;;;2.50;1.30;;;;;;;22.12;55.53;100472.48;130215;1268;108784;-77
2022/07/09 10:11:01;;;;;;;3.00;2.10;;;;;;;21.74;52.97;100469.09;130200;1268;107819;-73
2022/07/09 10:14:08;;;;;;;2.10;1.20;;;;;;;21.43;52.03;100477.60;130235;1269;108862;-75
2022/07/09 10:17:16;;;;;;;2.90;1.20;;;;;;;21.30;53.57;100467.47;130189;1267;108368;-73
2022/07/09 10:20:33;;;;;;;2.60;1.30;;;;;;;21.25;52.20;100462.36;130386;1268;108699;-72
2022/07/09 10:23:51;;;;;;;3.00;1.90;;;;;;;21.27;53.11;100453.75;130398;1268;108956;-72
2022/07/09 10:27:06;;;;;;;2.30;1.20;;;;;;;21.29;50.62;100454.58;130335;1268;106947;-72
2022/07/09 10:30:25;;;;;;;4.40;3.20;;;;;;;21.36;52.39;100450.48;130390;1268;108729;-72
2022/07/09 10:33:35;;;;;;;2.00;1.30;;;;;;;21.34;51.15;100449.20;130362;1267;108743;-74
2022/07/09 10:36:56;;;;;;;2.20;1.20;;;;;;;21.40;52.53;100440.13;130450;1268;108764;-74
2022/07/09 10:40:11;;;;;;;2.30;1.30;;;;;;;21.55;52.92;100435.74;130367;1268;107030;-79
2022/07/09 10:43:17;;;;;;;4.20;1.40;;;;;;;21.65;51.17;100444.28;130404;1268;109100;-79
2022/07/09 10:46:22;;;;;;;2.20;1.20;;;;;;;21.74;51.85;100432.75;130374;1268;108882;-79
2022/07/09 10:49:28;;;;;;;2.00;1.30;;;;;;;21.92;51.97;100433.70;130450;1268;108834;-78
2022/07/09 10:52:34;;;;;;;2.40;1.20;;;;;;;21.98;51.19;100435.45;130261;1268;108861;-77
2022/07/09 10:55:44;;;;;;;3.50;1.40;;;;;;;22.07;51.42;100434.53;130368;1268;107768;-80
2022/07/09 10:58:51;;;;;;;2.90;1.50;;;;;;;22.10;50.65;100438.64;130380;1268;108227;-79
2022/07/09 11:01:57;;;;;;;3.20;1.30;;;;;;;22.15;48.31;100442.34;130436;1268;108812;-81
2022/07/09 11:05:02;;;;;;;3.30;1.30;;;;;;;22.06;50.65;100437.43;130508;1267;109134;-76
2022/07/09 11:08:09;;;;;;;1.50;1.10;;;;;;;22.25;49.55;100431.97;130486;1268;108731;-77
2022/07/09 11:11:21;;;;;;;2.30;1.60;;;;;;;22.22;49.30;100429.89;130442;1267;108215;-82
2022/07/09 11:14:26;;;;;;;4.20;1.60;;;;;;;22.31;49.77;100431.54;130462;1268;108835;-80
2022/07/09 11:17:31;;;;;;;2.60;1.10;;;;;;;22.19;46.82;100425.70;130451;1266;108843;-75
2022/07/09 11:20:43;;;;;;;2.20;1.30;;;;;;;22.23;49.79;100417.22;130353;1268;108988;-76
2022/07/09 11:23:51;;;;;;;3.10;1.30;;;;;;;22.53;49.67;100425.59;130534;1268;108721;-76
2022/07/09 11:27:01;;;;;;;4.50;1.30;;;;;;;22.41;48.10;100425.53;130419;1268;108554;-76
2022/07/09 11:30:12;;;;;;;3.90;1.30;;;;;;;22.14;49.36;100422.38;130590;1266;107608;-76
2022/07/09 11:33:17;;;;;;;1.50;1.10;;;;;;;22.14;48.88;100426.60;130497;1268;108844;-77
2022/07/09 11:36:23;;;;;;;2.10;1.00;;;;;;;22.15;48.54;100421.31;130446;1268;107711;-77
2022/07/09 11:39:30;;;;;;;1.60;1.00;;;;;;;22.26;48.28;100421.55;130420;1267;107495;-76
2022/07/09 11:42:43;;;;;;;1.90;1.20;;;;;;;22.29;47.47;100420.17;130326;1268;109696;-71
2022/07/09 11:45:55;;;;;;;2.70;1.30;;;;;;;21.92;46.85;100432.21;130392;1268;108869;-73
2022/07/09 11:49:01;;;;;;;3.10;1.60;;;;;;;21.74;47.45;100429.59;130485;1268;108856;-74
2022/07/09 11:52:17;;;;;;;1.50;1.40;;;;;;;21.66;47.36;100430.40;130505;1267;107730;-74
2022/07/09 11:55:29;;;;;;;4.40;1.50;;;;;;;21.82;48.89;100420.14;130388;1267;108693;-73
2022/07/09 11:58:35;;;;;;;2.80;1.30;;;;;;;22.01;47.28;100418.75;130408;1267;107795;-72
2022/07/09 12:01:40;;;;;;;3.10;1.10;;;;;;;22.01;47.38;100417.45;130417;1268;108947;-73
2022/07/09 12:04:48;;;;;;;3.20;1.20;;;;;;;22.00;47.46;100406.22;130394;1267;106920;-74
2022/07/09 12:07:54;;;;;;;2.80;1.20;;;;;;;22.18;48.17;100404.41;130306;1268;108769;-73
2022/07/09 12:11:00;;;;;;;3.30;1.20;;;;;;;22.47;47.87;100403.67;130443;1268;107733;-71
2022/07/09 12:14:06;;;;;;;1.10;1.00;;;;;;;22.51;46.41;100404.06;130353;1268;107456;-72
2022/07/09 12:17:20;;;;;;;4.20;1.60;;;;;;;22.24;46.17;100400.49;130113;1268;109040;-72
2022/07/09 12:20:27;;;;;;;2.70;1.20;;;;;;;22.02;44.90;100413.55;130412;1268;108811;-74
2022/07/09 12:23:32;;;;;;;4.60;1.20;;;;;;;21.89;45.53;100412.30;130414;1268;108778;-71
2022/07/09 12:26:38;;;;;;;2.50;1.10;;;;;;;21.84;45.80;100408.67;130371;1267;108624;-72
2022/07/09 12:29:43;;;;;;;2.40;1.20;;;;;;;21.72;44.22;100409.70;130334;1268;107853;-74
2022/07/09 12:32:50;;;;;;;1.70;1.20;;;;;;;21.53;45.21;100407.73;130376;1268;108644;-77
2022/07/09 12:35:55;;;;;;;1.60;1.20;;;;;;;21.65;45.94;100404.21;130336;1268;108736;-72
2022/07/09 12:39:00;;;;;;;2.00;1.10;;;;;;;21.78;45.24;100405.61;130319;1268;107819;-74
2022/07/09 12:42:06;;;;;;;3.10;1.00;;;;;;;21.65;44.35;100403.45;130311;1268;108986;-72
2022/07/09 12:45:12;;;;;;;2.10;1.00;;;;;;;21.60;45.08;100407.13;130301;1268;108864;-72
2022/07/09 12:48:18;;;;;;;1.80;1.10;;;;;;;21.78;45.70;100405.55;130413;1267;107662;-75
2022/07/09 12:51:23;;;;;;;1.50;1.00;;;;;;;21.87;45.38;100403.71;130333;1268;108938;-73
2022/07/09 12:54:28;;;;;;;3.10;1.10;;;;;;;21.59;43.55;100409.59;130252;1268;108851;-73
2022/07/09 12:57:34;;;;;;;1.50;1.20;;;;;;;21.19;44.39;100410.00;130292;1268;107423;-72
2022/07/09 13:00:39;;;;;;;2.80;1.20;;;;;;;21.01;44.46;100408.75;130365;1268;107182;-71
2022/07/09 13:03:45;;;;;;;2.00;0.90;;;;;;;20.91;45.13;100409.10;130407;1268;108754;-74
2022/07/09 13:06:51;;;;;;;2.10;1.20;;;;;;;20.81;45.74;100409.28;130175;1268;302899;-73
2022/07/09 13:09:56;;;;;;;3.80;1.10;;;;;;;20.89;45.90;100405.48;130325;1268;108833;-74
2022/07/09 13:13:02;;;;;;;1.20;1.00;;;;;;;21.02;46.14;100401.65;130334;1268;108817;-75
2022/07/09 13:16:08;;;;;;;2.90;1.10;;;;;;;21.17;46.43;100399.24;130332;1268;108731;-75
2022/07/09 13:19:13;;;;;;;1.70;1.30;;;;;;;21.37;45.74;100403.81;130346;1268;107698;-75
2022/07/09 13:22:18;;;;;;;1.80;1.10;;;;;;;21.40;45.53;100398.52;130217;1268;108747;-75
2022/07/09 13:25:24;;;;;;;1.40;1.20;;;;;;;21.36;44.55;100393.52;130316;1268;109770;-79
2022/07/09 13:28:29;;;;;;;1.90;1.20;;;;;;;21.34;45.37;100393.41;130349;1268;108838;-79
2022/07/09 13:31:35;;;;;;;2.30;1.40;;;;;;;21.49;45.54;100386.33;130337;1268;108771;-78
2022/07/09 13:34:40;;;;;;;2.20;1.20;;;;;;;21.67;46.12;100380.55;130464;1268;108830;-80
2022/07/09 13:37:46;;;;;;;3.10;1.30;;;;;;;21.77;45.89;100379.45;130336;1268;108622;-78
2022/07/09 13:40:51;;;;;;;3.10;1.60;;;;;;;21.75;45.88;100378.41;130343;1268;107475;-76
2022/07/09 13:43:57;;;;;;;2.60;1.30;;;;;;;21.81;46.25;100375.80;130312;1268;109172;-76
2022/07/09 13:47:03;;;;;;;1.50;1.40;;;;;;;21.83;45.46;100370.77;130238;1268;108844;-83
2022/07/09 13:50:10;;;;;;;3.30;1.50;;;;;;;21.77;45.91;100373.05;130243;1268;108790;-79
2022/07/09 13:53:15;;;;;;;3.40;1.30;;;;;;;21.74;45.64;100364.73;130217;1268;108737;-77
2022/07/09 13:56:21;;;;;;;1.70;1.30;;;;;;;21.91;46.13;100362.38;130340;1268;109088;-76
2022/07/09 13:59:26;;;;;;;3.70;1.30;;;;;;;22.07;46.31;100361.55;130385;1268;108910;-75
2022/07/09 14:02:33;;;;;;;2.30;1.40;;;;;;;22.23;45.78;100355.96;130407;1268;107716;-77
2022/07/09 14:05:39;;;;;;;2.20;1.50;;;;;;;22.19;45.88;100351.20;130375;1268;108744;-77
2022/07/09 14:08:44;;;;;;;2.20;1.30;;;;;;;22.31;46.39;100349.83;130388;1268;108832;-75
2022/07/09 14:11:50;;;;;;;2.10;1.40;;;;;;;22.45;46.12;100345.85;130346;1268;108772;-75